sensor_id;sensor_type;location;lat;lon;timestamp;pressure;altitude;pressure_sealevel;temperature;humidity
45467;BME280;31212;49.734;8.490;2022-09-09T00:00:57;99928.69;;;18.74;67.13
45467;BME280;31212;49.734;8.490;2022-09-09T00:03:26;99934.84;;;18.73;67.50
45467;BME280;31212;49.734;8.490;2022-09-09T00:05:59;99937.44;;;18.75;67.56
45467;BME280;31212;49.734;8.490;2022-09-09T00:08:37;99943.75;;;18.71;67.86
45467;BME280;31212;49.734;8.490;2022-09-09T00:11:12;99945.56;;;18.69;68.06
45467;BME280;31212;49.734;8.490;2022-09-09T00:13:46;99944.09;;;18.61;68.49
45467;BME280;31212;49.734;8.490;2022-09-09T00:16:15;99938.84;;;18.61;68.49
45467;BME280;31212;49.734;8.490;2022-09-09T00:18:51;99948.25;;;18.67;68.77
45467;BME280;31212;49.734;8.490;2022-09-09T00:21:22;99944.78;;;18.66;68.81
45467;BME280;31212;49.734;8.490;2022-09-09T00:23:53;99931.66;;;18.65;68.64
45467;BME280;31212;49.734;8.490;2022-09-09T00:26:26;99948.88;;;18.74;68.64
45467;BME280;31212;49.734;8.490;2022-09-09T00:29:03;99942.28;;;18.86;68.60
45467;BME280;31212;49.734;8.490;2022-09-09T00:31:32;99941.75;;;18.77;68.67
45467;BME280;31212;49.734;8.490;2022-09-09T00:34:03;99944.59;;;18.71;69.03
45467;BME280;31212;49.734;8.490;2022-09-09T00:36:32;99944.38;;;18.77;68.69
45467;BME280;31212;49.734;8.490;2022-09-09T00:39:01;99933.53;;;18.85;68.79
45467;BME280;31212;49.734;8.490;2022-09-09T00:41:39;99919.59;;;18.83;68.29
45467;BME280;31212;49.734;8.490;2022-09-09T00:44:20;99936.50;;;18.76;68.46
45467;BME280;31212;49.734;8.490;2022-09-09T00:46:58;99940.94;;;18.75;68.77
45467;BME280;31212;49.734;8.490;2022-09-09T00:49:38;99937.44;;;18.75;68.72
45467;BME280;31212;49.734;8.490;2022-09-09T00:52:15;99939.03;;;18.79;68.83
45467;BME280;31212;49.734;8.490;2022-09-09T00:54:48;99932.00;;;19.03;68.14
45467;BME280;31212;49.734;8.490;2022-09-09T00:57:26;99927.09;;;18.94;68.26
45467;BME280;31212;49.734;8.490;2022-09-09T00:59:59;99939.81;;;18.81;68.57
45467;BME280;31212;49.734;8.490;2022-09-09T01:02:32;99947.84;;;18.78;68.97
45467;BME280;31212;49.734;8.490;2022-09-09T01:05:10;99946.00;;;18.80;69.17
45467;BME280;31212;49.734;8.490;2022-09-09T01:07:40;99940.72;;;18.80;68.98
45467;BME280;31212;49.734;8.490;2022-09-09T01:10:19;99944.31;;;18.79;69.08
45467;BME280;31212;49.734;8.490;2022-09-09T01:12:51;99930.22;;;18.80;69.12
45467;BME280;31212;49.734;8.490;2022-09-09T01:15:23;99929.59;;;18.73;69.08
45467;BME280;31212;49.734;8.490;2022-09-09T01:17:58;99928.75;;;18.73;69.02
45467;BME280;31212;49.734;8.490;2022-09-09T01:20:31;99922.81;;;18.67;69.03
45467;BME280;31212;49.734;8.490;2022-09-09T01:23:19;99939.97;;;18.54;69.14
45467;BME280;31212;49.734;8.490;2022-09-09T01:26:19;99931.69;;;18.41;69.50
45467;BME280;31212;49.734;8.490;2022-09-09T01:28:49;99937.63;;;18.46;69.51
45467;BME280;31212;49.734;8.490;2022-09-09T01:31:21;99932.66;;;18.39;69.58
45467;BME280;31212;49.734;8.490;2022-09-09T01:33:49;99922.25;;;18.36;69.69
45467;BME280;31212;49.734;8.490;2022-09-09T01:36:24;99922.03;;;18.42;69.51
45467;BME280;31212;49.734;8.490;2022-09-09T01:38:53;99929.84;;;18.43;69.39
45467;BME280;31212;49.734;8.490;2022-09-09T01:41:22;99931.50;;;18.22;69.64
45467;BME280;31212;49.734;8.490;2022-09-09T01:44:15;99941.09;;;18.23;69.76
45467;BME280;31212;49.734;8.490;2022-09-09T01:46:44;99942.75;;;18.26;69.88
45467;BME280;31212;49.734;8.490;2022-09-09T01:49:16;99942.97;;;18.20;69.89
45467;BME280;31212;49.734;8.490;2022-09-09T01:51:43;99935.09;;;18.20;70.16
45467;BME280;31212;49.734;8.490;2022-09-09T01:54:13;99939.72;;;18.13;70.10
45467;BME280;31212;49.734;8.490;2022-09-09T01:56:50;99946.41;;;18.22;70.33
45467;BME280;31212;49.734;8.490;2022-09-09T01:59:32;99940.28;;;18.21;70.16
45467;BME280;31212;49.734;8.490;2022-09-09T02:02:10;99945.66;;;18.18;70.79
45467;BME280;31212;49.734;8.490;2022-09-09T02:04:45;99934.97;;;18.23;70.41
45467;BME280;31212;49.734;8.490;2022-09-09T02:07:31;99942.75;;;18.26;70.40
45467;BME280;31212;49.734;8.490;2022-09-09T02:10:10;99954.19;;;18.25;70.73
45467;BME280;31212;49.734;8.490;2022-09-09T02:12:44;99969.72;;;18.06;71.23
45467;BME280;31212;49.734;8.490;2022-09-09T02:15:17;99974.59;;;18.16;71.21
45467;BME280;31212;49.734;8.490;2022-09-09T02:17:49;99974.59;;;18.16;71.25
45467;BME280;31212;49.734;8.490;2022-09-09T02:20:18;99965.22;;;18.35;70.84
45467;BME280;31212;49.734;8.490;2022-09-09T02:22:58;99958.81;;;18.42;70.70
45467;BME280;31212;49.734;8.490;2022-09-09T02:25:27;99946.78;;;18.60;70.26
45467;BME280;31212;49.734;8.490;2022-09-09T02:28:04;99932.41;;;18.69;69.80
45467;BME280;31212;49.734;8.490;2022-09-09T02:30:34;99939.19;;;18.74;69.89
45467;BME280;31212;49.734;8.490;2022-09-09T02:33:03;99945.06;;;18.59;69.87
45467;BME280;31212;49.734;8.490;2022-09-09T02:35:43;99944.38;;;18.77;69.64
45467;BME280;31212;49.734;8.490;2022-09-09T02:38:15;99940.25;;;18.70;69.78
45467;BME280;31212;49.734;8.490;2022-09-09T02:40:52;99933.31;;;18.67;69.77
45467;BME280;31212;49.734;8.490;2022-09-09T02:43:21;99941.47;;;18.83;69.83
45467;BME280;31212;49.734;8.490;2022-09-09T02:45:53;99929.38;;;18.79;69.64
45467;BME280;31212;49.734;8.490;2022-09-09T02:48:30;99938.91;;;18.82;69.54
45467;BME280;31212;49.734;8.490;2022-09-09T02:51:07;99928.19;;;18.64;69.81
45467;BME280;31212;49.734;8.490;2022-09-09T02:53:41;99938.34;;;18.50;70.25
45467;BME280;31212;49.734;8.490;2022-09-09T02:56:15;99952.59;;;18.44;70.72
45467;BME280;31212;49.734;8.490;2022-09-09T02:58:46;99966.63;;;18.43;71.19
45467;BME280;31212;49.734;8.490;2022-09-09T03:01:15;99966.94;;;18.36;71.41
45467;BME280;31212;49.734;8.490;2022-09-09T03:03:42;99964.06;;;18.42;71.22
45467;BME280;31212;49.734;8.490;2022-09-09T03:06:14;99961.44;;;18.42;71.27
45467;BME280;31212;49.734;8.490;2022-09-09T03:08:45;99964.47;;;18.31;71.68
45467;BME280;31212;49.734;8.490;2022-09-09T03:11:12;99976.69;;;18.32;71.58
45467;BME280;31212;49.734;8.490;2022-09-09T03:13:40;99972.22;;;18.34;71.76
45467;BME280;31212;49.734;8.490;2022-09-09T03:16:10;99986.13;;;18.12;72.26
45467;BME280;31212;49.734;8.490;2022-09-09T03:18:42;99998.59;;;18.07;72.94
45467;BME280;31212;49.734;8.490;2022-09-09T03:21:11;99993.72;;;17.96;73.29
45467;BME280;31212;49.734;8.490;2022-09-09T03:23:39;99999.28;;;17.86;73.39
45467;BME280;31212;49.734;8.490;2022-09-09T03:26:06;99999.19;;;17.89;73.46
45467;BME280;31212;49.734;8.490;2022-09-09T03:28:39;99999.09;;;17.92;73.43
45467;BME280;31212;49.734;8.490;2022-09-09T03:31:06;99998.22;;;17.91;73.55
45467;BME280;31212;49.734;8.490;2022-09-09T03:33:40;100008.78;;;17.90;73.45
45467;BME280;31212;49.734;8.490;2022-09-09T05:17:56;100126.13;;;15.14;96.71
45467;BME280;31212;49.734;8.490;2022-09-09T05:20:24;100108.78;;;15.51;93.69
45467;BME280;31212;49.734;8.490;2022-09-09T05:29:13;100103.09;;;15.71;90.83
45467;BME280;31212;49.734;8.490;2022-09-09T05:31:39;100090.25;;;16.00;88.84
45467;BME280;31212;49.734;8.490;2022-09-09T05:34:10;100076.81;;;16.13;87.29
45467;BME280;31212;49.734;8.490;2022-09-09T05:36:38;100069.75;;;16.17;86.22
45467;BME280;31212;49.734;8.490;2022-09-09T05:39:05;100067.19;;;16.16;85.76
45467;BME280;31212;49.734;8.490;2022-09-09T05:41:33;100058.22;;;16.24;85.00
45467;BME280;31212;49.734;8.490;2022-09-09T05:44:02;100057.84;;;16.38;84.44
45467;BME280;31212;49.734;8.490;2022-09-09T05:46:34;100060.00;;;16.55;83.75
45467;BME280;31212;49.734;8.490;2022-09-09T05:49:02;100043.63;;;16.78;82.73
45467;BME280;31212;49.734;8.490;2022-09-09T05:51:31;100024.13;;;16.89;81.67
45467;BME280;31212;49.734;8.490;2022-09-09T05:54:03;100017.03;;;16.94;81.40
45467;BME280;31212;49.734;8.490;2022-09-09T05:56:33;100014.25;;;16.98;80.95
45467;BME280;31212;49.734;8.490;2022-09-09T05:59:01;100009.75;;;17.04;80.25
45467;BME280;31212;49.734;8.490;2022-09-09T06:01:29;99993.19;;;17.30;79.65
45467;BME280;31212;49.734;8.490;2022-09-09T06:03:58;99983.47;;;17.34;79.07
45467;BME280;31212;49.734;8.490;2022-09-09T06:06:26;99977.09;;;17.41;78.65
45467;BME280;31212;49.734;8.490;2022-09-09T06:08:57;99967.56;;;17.65;77.86
45467;BME280;31212;49.734;8.490;2022-09-09T06:11:28;99963.78;;;18.01;77.15
45467;BME280;31212;49.734;8.490;2022-09-09T06:13:57;99943.75;;;18.22;76.14
45467;BME280;31212;49.734;8.490;2022-09-09T06:16:27;99915.56;;;18.27;75.10
45467;BME280;31212;49.734;8.490;2022-09-09T06:18:55;99898.81;;;18.29;74.56
45467;BME280;31212;49.734;8.490;2022-09-09T06:21:27;99888.59;;;18.45;73.83
45467;BME280;31212;49.734;8.490;2022-09-09T06:23:54;99893.06;;;18.20;73.77
45467;BME280;31212;49.734;8.490;2022-09-09T06:26:22;99900.38;;;18.59;73.68
45467;BME280;31212;49.734;8.490;2022-09-09T06:28:53;99823.09;;;19.90;70.37
45467;BME280;31212;49.734;8.490;2022-09-09T06:31:22;99743.88;;;21.38;66.42
45467;BME280;31212;49.734;8.490;2022-09-09T06:33:51;99653.25;;;21.37;63.22
45467;BME280;31212;49.734;8.490;2022-09-09T06:36:20;99711.78;;;21.12;64.17
45467;BME280;31212;49.734;8.490;2022-09-09T06:38:49;99714.75;;;21.06;63.73
45467;BME280;31212;49.734;8.490;2022-09-09T06:41:19;99738.84;;;20.63;64.47
45467;BME280;31212;49.734;8.490;2022-09-09T06:43:46;99797.88;;;20.41;65.49
45467;BME280;31212;49.734;8.490;2022-09-09T06:46:14;99804.25;;;19.99;65.98
45467;BME280;31212;49.734;8.490;2022-09-09T06:48:42;99840.97;;;20.02;66.51
45467;BME280;31212;49.734;8.490;2022-09-09T06:51:14;99844.50;;;19.82;67.08
45467;BME280;31212;49.734;8.490;2022-09-09T06:53:43;99861.81;;;19.67;67.81
45467;BME280;31212;49.734;8.490;2022-09-09T06:56:20;99853.31;;;19.40;68.06
45467;BME280;31212;49.734;8.490;2022-09-09T06:58:50;99890.25;;;19.38;68.88
45467;BME280;31212;49.734;8.490;2022-09-09T07:01:24;99888.53;;;19.37;68.92
45467;BME280;31212;49.734;8.490;2022-09-09T07:03:52;99880.09;;;19.49;68.74
45467;BME280;31212;49.734;8.490;2022-09-09T07:06:22;99885.16;;;19.33;69.15
45467;BME280;31212;49.734;8.490;2022-09-09T07:08:51;99902.56;;;19.15;69.66
45467;BME280;31212;49.734;8.490;2022-09-09T07:11:21;99901.56;;;18.96;69.64
45467;BME280;31212;49.734;8.490;2022-09-09T07:13:48;99922.00;;;18.89;70.38
45467;BME280;31212;49.734;8.490;2022-09-09T07:16:17;99933.16;;;18.96;70.73
45467;BME280;31212;49.734;8.490;2022-09-09T07:18:46;99943.59;;;18.97;70.93
45467;BME280;31212;49.734;8.490;2022-09-09T07:21:14;99909.78;;;18.87;70.16
45467;BME280;31212;49.734;8.490;2022-09-09T07:23:41;99902.25;;;18.55;70.54
45467;BME280;31212;49.734;8.490;2022-09-09T07:26:09;99914.34;;;18.83;70.22
45467;BME280;31212;49.734;8.490;2022-09-09T07:28:39;99913.75;;;18.98;69.89
45467;BME280;31212;49.734;8.490;2022-09-09T07:31:12;99890.00;;;19.00;69.35
45467;BME280;31212;49.734;8.490;2022-09-09T07:33:40;99897.81;;;19.03;69.11
45467;BME280;31212;49.734;8.490;2022-09-09T07:36:10;99897.97;;;19.21;68.99
45467;BME280;31212;49.734;8.490;2022-09-09T07:38:39;99882.94;;;19.45;68.47
45467;BME280;31212;49.734;8.490;2022-09-09T07:41:07;99846.72;;;19.71;67.21
45467;BME280;31212;49.734;8.490;2022-09-09T07:43:39;99805.16;;;19.98;65.98
45467;BME280;31212;49.734;8.490;2022-09-09T07:46:07;99810.22;;;20.22;65.62
45467;BME280;31212;49.734;8.490;2022-09-09T07:48:35;99793.94;;;20.50;64.89
45467;BME280;31212;49.734;8.490;2022-09-09T07:51:04;99776.00;;;20.39;64.40
45467;BME280;31212;49.734;8.490;2022-09-09T07:53:32;99786.38;;;20.61;64.32
45467;BME280;31212;49.734;8.490;2022-09-09T07:56:03;99769.06;;;20.75;63.79
45467;BME280;31212;49.734;8.490;2022-09-09T07:58:30;99755.34;;;20.86;63.04
45467;BME280;31212;49.734;8.490;2022-09-09T08:00:58;99749.34;;;21.17;62.19
45467;BME280;31212;49.734;8.490;2022-09-09T08:03:25;99723.81;;;21.51;61.55
45467;BME280;31212;49.734;8.490;2022-09-09T08:05:53;99654.53;;;22.42;58.93
45467;BME280;31212;49.734;8.490;2022-09-09T08:08:19;99607.53;;;23.77;56.39
45467;BME280;31212;49.734;8.490;2022-09-09T08:10:46;99537.13;;;25.77;52.56
45467;BME280;31212;49.734;8.490;2022-09-09T08:13:13;99408.00;;;26.65;48.34
45467;BME280;31212;49.734;8.490;2022-09-09T08:15:40;99392.16;;;26.86;46.89
45467;BME280;31212;49.734;8.490;2022-09-09T08:18:09;99367.16;;;27.95;45.05
45467;BME280;31212;49.734;8.490;2022-09-09T08:20:37;99325.59;;;27.92;44.13
45467;BME280;31212;49.734;8.490;2022-09-09T08:23:04;99358.31;;;28.15;43.73
45467;BME280;31212;49.734;8.490;2022-09-09T08:25:31;99375.53;;;27.80;44.26
45467;BME280;31212;49.734;8.490;2022-09-09T08:28:00;99362.94;;;26.18;45.33
45467;BME280;31212;49.734;8.490;2022-09-09T08:30:27;99466.56;;;24.75;48.23
45467;BME280;31212;49.734;8.490;2022-09-09T08:32:54;99576.13;;;23.56;51.50
45467;BME280;31212;49.734;8.490;2022-09-09T08:35:23;99635.59;;;23.38;52.79
45467;BME280;31212;49.734;8.490;2022-09-09T08:37:53;99658.56;;;23.23;53.21
45467;BME280;31212;49.734;8.490;2022-09-09T08:40:26;99677.16;;;22.92;53.95
45467;BME280;31212;49.734;8.490;2022-09-09T08:42:56;99706.91;;;22.51;54.86
45467;BME280;31212;49.734;8.490;2022-09-09T08:45:29;99724.25;;;22.41;55.54
45467;BME280;31212;49.734;8.490;2022-09-09T08:48:24;99740.00;;;22.58;55.63
45467;BME280;31212;49.734;8.490;2022-09-09T08:50:58;99729.03;;;22.80;55.39
45467;BME280;31212;49.734;8.490;2022-09-09T08:53:35;99722.63;;;22.99;54.96
45467;BME280;31212;49.734;8.490;2022-09-09T08:56:09;99716.91;;;22.76;55.18
45467;BME280;31212;49.734;8.490;2022-09-09T08:58:52;99697.38;;;24.09;53.22
45467;BME280;31212;49.734;8.490;2022-09-09T09:01:39;99617.59;;;24.52;51.27
45467;BME280;31212;49.734;8.490;2022-09-09T09:04:25;99579.38;;;25.45;49.88
45467;BME280;31212;49.734;8.490;2022-09-09T09:07:06;99492.50;;;26.86;47.12
45467;BME280;31212;49.734;8.490;2022-09-09T09:09:42;99439.56;;;27.48;45.42
45467;BME280;31212;49.734;8.490;2022-09-09T09:12:16;99414.94;;;27.77;44.58
45467;BME280;31212;49.734;8.490;2022-09-09T09:14:46;99427.50;;;26.89;45.60
45467;BME280;31212;49.734;8.490;2022-09-09T09:17:16;99480.25;;;25.91;47.20
45467;BME280;31212;49.734;8.490;2022-09-09T09:19:46;99507.38;;;25.48;48.16
45467;BME280;31212;49.734;8.490;2022-09-09T09:22:18;99520.38;;;25.40;48.72
45467;BME280;31212;49.734;8.490;2022-09-09T09:24:52;99529.53;;;24.85;49.15
45467;BME280;31212;49.734;8.490;2022-09-09T09:27:31;99608.84;;;24.64;50.68
45467;BME280;31212;49.734;8.490;2022-09-09T09:30:00;99587.72;;;25.01;50.06
45467;BME280;31212;49.734;8.490;2022-09-09T09:32:32;99562.81;;;24.25;50.63
45467;BME280;31212;49.734;8.490;2022-09-09T09:35:02;99603.50;;;23.84;51.82
45467;BME280;31212;49.734;8.490;2022-09-09T09:37:40;99656.41;;;23.44;53.15
45467;BME280;31212;49.734;8.490;2022-09-09T09:40:10;99702.38;;;22.83;54.71
45467;BME280;31212;49.734;8.490;2022-09-09T09:42:46;99712.50;;;23.65;53.79
45467;BME280;31212;49.734;8.490;2022-09-09T09:45:17;99646.78;;;24.39;51.87
45467;BME280;31212;49.734;8.490;2022-09-09T09:47:58;99615.53;;;25.72;50.05
45467;BME280;31212;49.734;8.490;2022-09-09T09:50:25;99518.03;;;27.00;46.87
45467;BME280;31212;49.734;8.490;2022-09-09T09:52:56;99418.69;;;28.78;43.53
45467;BME280;31212;49.734;8.490;2022-09-09T09:55:25;99351.50;;;29.12;42.12
45467;BME280;31212;49.734;8.490;2022-09-09T09:58:00;99361.38;;;29.41;41.70
45467;BME280;31212;49.734;8.490;2022-09-09T10:00:28;99297.50;;;29.85;40.69
45467;BME280;31212;49.734;8.490;2022-09-09T10:03:19;99278.22;;;29.82;40.36
45467;BME280;31212;49.734;8.490;2022-09-09T10:05:49;99303.41;;;29.02;41.07
45467;BME280;31212;49.734;8.490;2022-09-09T10:08:17;99378.13;;;28.53;42.62
45467;BME280;31212;49.734;8.490;2022-09-09T10:11:09;99329.59;;;27.77;42.78
45467;BME280;31212;49.734;8.490;2022-09-09T10:13:51;99326.31;;;26.89;43.46
45467;BME280;31212;49.734;8.490;2022-09-09T10:16:38;99366.16;;;25.88;45.22
45467;BME280;31212;49.734;8.490;2022-09-09T10:19:12;99436.19;;;26.68;45.58
45467;BME280;31212;49.734;8.490;2022-09-09T10:22:00;99375.81;;;28.39;42.43
45467;BME280;31212;49.734;8.490;2022-09-09T10:25:03;99281.47;;;28.99;40.72
45467;BME280;31212;49.734;8.490;2022-09-09T10:27:39;99284.41;;;29.35;40.41
45467;BME280;31212;49.734;8.490;2022-09-09T10:30:16;99296.53;;;27.89;41.73
45467;BME280;31212;49.734;8.490;2022-09-09T10:32:49;99311.28;;;26.88;43.40
45467;BME280;31212;49.734;8.490;2022-09-09T10:35:25;99333.88;;;28.10;42.33
45467;BME280;31212;49.734;8.490;2022-09-09T10:38:11;99282.59;;;29.26;40.03
45467;BME280;31212;49.734;8.490;2022-09-09T10:40:46;99242.97;;;29.96;38.50
45467;BME280;31212;49.734;8.490;2022-09-09T10:43:33;99199.06;;;30.17;37.88
45467;BME280;31212;49.734;8.490;2022-09-09T10:46:10;99167.03;;;30.87;36.84
45467;BME280;31212;49.734;8.490;2022-09-09T10:48:59;99127.31;;;30.39;36.90
45467;BME280;31212;49.734;8.490;2022-09-09T10:51:37;99158.22;;;30.33;37.06
45467;BME280;31212;49.734;8.490;2022-09-09T10:54:16;99158.56;;;30.74;36.52
45467;BME280;31212;49.734;8.490;2022-09-09T10:56:52;99149.44;;;31.72;35.36
45467;BME280;31212;49.734;8.490;2022-09-09T10:59:25;99112.28;;;31.51;35.50
45467;BME280;31212;49.734;8.490;2022-09-09T11:01:57;99142.75;;;30.09;37.23
45467;BME280;31212;49.734;8.490;2022-09-09T11:04:29;99174.25;;;30.87;37.00
45467;BME280;31212;49.734;8.490;2022-09-09T11:07:04;99131.94;;;30.73;36.30
45467;BME280;31212;49.734;8.490;2022-09-09T11:09:36;99082.25;;;30.16;36.39
45467;BME280;31212;49.734;8.490;2022-09-09T11:12:12;99126.16;;;30.41;36.71
45467;BME280;31212;49.734;8.490;2022-09-09T11:14:43;99064.66;;;29.31;36.84
45467;BME280;31212;49.734;8.490;2022-09-09T11:17:14;99186.44;;;28.57;38.83
45467;BME280;31212;49.734;8.490;2022-09-09T11:19:43;99213.75;;;28.00;39.77
45467;BME280;31212;49.734;8.490;2022-09-09T11:22:17;99227.00;;;28.12;40.09
45467;BME280;31212;49.734;8.490;2022-09-09T11:24:49;99267.78;;;28.53;39.96
45467;BME280;31212;49.734;8.490;2022-09-09T11:27:22;99268.13;;;28.09;40.39
45467;BME280;31212;49.734;8.490;2022-09-09T11:30:10;99237.13;;;27.87;40.29
45467;BME280;31212;49.734;8.490;2022-09-09T11:36:15;99318.44;;;26.21;43.84
45467;BME280;31212;49.734;8.490;2022-09-09T11:38:45;99411.19;;;26.25;45.01
45467;BME280;31212;49.734;8.490;2022-09-09T11:41:14;99411.09;;;25.80;45.10
45467;BME280;31212;49.734;8.490;2022-09-09T11:43:44;99399.72;;;25.18;45.79
45467;BME280;31212;49.734;8.490;2022-09-09T11:46:12;99457.22;;;24.56;47.51
45467;BME280;31212;49.734;8.490;2022-09-09T11:48:42;99507.78;;;24.67;47.97
45467;BME280;31212;49.734;8.490;2022-09-09T11:51:12;99509.34;;;24.83;47.68
45467;BME280;31212;49.734;8.490;2022-09-09T11:53:51;99484.28;;;25.24;47.03
45467;BME280;31212;49.734;8.490;2022-09-09T11:56:26;99444.72;;;25.32;46.08
45467;BME280;31212;49.734;8.490;2022-09-09T11:58:57;99468.63;;;25.32;46.51
45467;BME280;31212;49.734;8.490;2022-09-09T12:01:29;99477.53;;;25.07;46.64
45467;BME280;31212;49.734;8.490;2022-09-09T12:06:51;99465.91;;;25.34;45.76
45467;BME280;31212;49.734;8.490;2022-09-09T12:09:22;99447.34;;;25.81;45.12
45467;BME280;31212;49.734;8.490;2022-09-09T12:11:51;99434.66;;;26.77;44.07
45467;BME280;31212;49.734;8.490;2022-09-09T12:14:22;99407.63;;;26.02;44.59
45467;BME280;31212;49.734;8.490;2022-09-09T12:16:49;99439.50;;;25.79;44.86
45467;BME280;31212;49.734;8.490;2022-09-09T12:19:19;99454.69;;;25.66;45.33
45467;BME280;31212;49.734;8.490;2022-09-09T12:21:56;99423.78;;;25.28;45.71
45467;BME280;31212;49.734;8.490;2022-09-09T12:24:32;99414.75;;;25.30;45.20
45467;BME280;31212;49.734;8.490;2022-09-09T12:27:07;99360.28;;;24.39;45.35
45467;BME280;31212;49.734;8.490;2022-09-09T12:29:44;99418.63;;;24.39;45.97
45467;BME280;31212;49.734;8.490;2022-09-09T12:32:16;99394.97;;;24.10;45.74
45467;BME280;31212;49.734;8.490;2022-09-09T12:34:46;99408.88;;;24.14;45.92
45467;BME280;31212;49.734;8.490;2022-09-09T12:37:18;99423.06;;;23.87;46.62
45467;BME280;31212;49.734;8.490;2022-09-09T12:39:52;99469.56;;;23.65;47.07
45467;BME280;31212;49.734;8.490;2022-09-09T12:42:21;99472.00;;;23.68;47.60
45467;BME280;31212;49.734;8.490;2022-09-09T12:44:57;99427.66;;;23.58;46.78
45467;BME280;31212;49.734;8.490;2022-09-09T12:47:33;99447.13;;;23.84;46.80
45467;BME280;31212;49.734;8.490;2022-09-09T12:50:02;99406.59;;;23.82;46.02
45467;BME280;31212;49.734;8.490;2022-09-09T12:52:31;99438.53;;;23.67;46.40
45467;BME280;31212;49.734;8.490;2022-09-09T12:55:01;99447.41;;;23.66;46.71
45467;BME280;31212;49.734;8.490;2022-09-09T12:57:35;99452.31;;;23.32;47.46
45467;BME280;31212;49.734;8.490;2022-09-09T13:00:14;99579.44;;;22.89;50.69
45467;BME280;31212;49.734;8.490;2022-09-09T13:02:49;99672.78;;;22.46;53.24
45467;BME280;31212;49.734;8.490;2022-09-09T13:05:19;99723.28;;;21.78;54.99
45467;BME280;31212;49.734;8.490;2022-09-09T13:07:46;99779.53;;;21.29;56.64
45467;BME280;31212;49.734;8.490;2022-09-09T13:10:15;99754.66;;;20.63;56.99
45467;BME280;31212;49.734;8.490;2022-09-09T13:12:46;99781.00;;;20.26;57.75
45467;BME280;31212;49.734;8.490;2022-09-09T13:15:19;99820.75;;;20.03;58.87
45467;BME280;31212;49.734;8.490;2022-09-09T13:17:53;99825.44;;;19.96;59.32
45467;BME280;31212;49.734;8.490;2022-09-09T13:20:20;99846.00;;;19.88;59.39
45467;BME280;31212;49.734;8.490;2022-09-09T13:22:48;99848.41;;;19.72;59.79
45467;BME280;31212;49.734;8.490;2022-09-09T13:25:21;99850.22;;;19.71;60.05
45467;BME280;31212;49.734;8.490;2022-09-09T13:27:57;99852.69;;;19.74;60.29
45467;BME280;31212;49.734;8.490;2022-09-09T13:30:28;99885.88;;;19.78;61.52
45467;BME280;31212;49.734;8.490;2022-09-09T13:33:00;99882.47;;;19.97;61.51
45467;BME280;31212;49.734;8.490;2022-09-09T13:35:28;99900.78;;;20.40;61.52
45467;BME280;31212;49.734;8.490;2022-09-09T13:37:54;99897.09;;;21.18;60.85
45467;BME280;31212;49.734;8.490;2022-09-09T13:40:22;99885.63;;;21.90;60.21
45467;BME280;31212;49.734;8.490;2022-09-09T13:42:52;99857.31;;;23.35;58.16
45467;BME280;31212;49.734;8.490;2022-09-09T13:45:22;99757.44;;;23.38;55.91
45467;BME280;31212;49.734;8.490;2022-09-09T13:47:53;99718.56;;;22.63;55.68
45467;BME280;31212;49.734;8.490;2022-09-09T13:50:23;99789.41;;;22.26;57.29
45467;BME280;31212;49.734;8.490;2022-09-09T13:52:52;99816.41;;;22.31;57.57
45467;BME280;31212;49.734;8.490;2022-09-09T13:55:20;99791.81;;;22.93;56.34
45467;BME280;31212;49.734;8.490;2022-09-09T13:57:51;99715.41;;;23.60;54.09
45467;BME280;31212;49.734;8.490;2022-09-09T14:00:18;99625.88;;;24.07;51.33
45467;BME280;31212;49.734;8.490;2022-09-09T14:02:46;99654.81;;;23.97;52.09
45467;BME280;31212;49.734;8.490;2022-09-09T14:05:14;99681.97;;;24.01;52.79
45467;BME280;31212;49.734;8.490;2022-09-09T14:07:42;99644.66;;;24.97;50.74
45467;BME280;31212;49.734;8.490;2022-09-09T14:10:10;99593.88;;;24.63;50.38
45467;BME280;31212;49.734;8.490;2022-09-09T14:12:37;99640.91;;;24.87;50.99
45467;BME280;31212;49.734;8.490;2022-09-09T14:15:05;99604.72;;;24.73;50.10
45467;BME280;31212;49.734;8.490;2022-09-09T14:17:32;99603.97;;;24.18;50.94
45467;BME280;31212;49.734;8.490;2022-09-09T14:20:02;99624.13;;;23.66;52.11
45467;BME280;31212;49.734;8.490;2022-09-09T14:22:36;99618.63;;;24.64;50.53
45467;BME280;31212;49.734;8.490;2022-09-09T14:25:05;99571.56;;;24.53;49.86
45467;BME280;31212;49.734;8.490;2022-09-09T14:27:32;99555.78;;;24.11;50.12
45467;BME280;31212;49.734;8.490;2022-09-09T14:29:59;99582.94;;;23.60;51.25
45467;BME280;31212;49.734;8.490;2022-09-09T14:32:26;99653.91;;;23.55;52.77
45467;BME280;31212;49.734;8.490;2022-09-09T14:34:53;99679.50;;;23.42;53.28
45467;BME280;31212;49.734;8.490;2022-09-09T14:37:20;99738.56;;;22.83;55.29
45467;BME280;31212;49.734;8.490;2022-09-09T14:39:48;99755.75;;;23.06;55.58
45467;BME280;31212;49.734;8.490;2022-09-09T14:42:15;99695.53;;;22.79;54.72
45467;BME280;31212;49.734;8.490;2022-09-09T14:44:42;99696.78;;;22.74;54.68
45467;BME280;31212;49.734;8.490;2022-09-09T14:47:09;99701.16;;;22.89;54.53
45467;BME280;31212;49.734;8.490;2022-09-09T14:49:36;99704.34;;;22.80;54.89
45467;BME280;31212;49.734;8.490;2022-09-09T14:52:03;99718.56;;;23.08;54.79
45467;BME280;31212;49.734;8.490;2022-09-09T14:54:30;99676.78;;;22.98;54.26
45467;BME280;31212;49.734;8.490;2022-09-09T14:56:58;99717.53;;;23.10;54.74
45467;BME280;31212;49.734;8.490;2022-09-09T14:59:25;99711.59;;;23.07;54.91
45467;BME280;31212;49.734;8.490;2022-09-09T15:01:52;99698.53;;;23.04;54.55
45467;BME280;31212;49.734;8.490;2022-09-09T15:04:19;99733.19;;;22.84;55.66
45467;BME280;31212;49.734;8.490;2022-09-09T15:06:46;99785.22;;;22.54;57.00
45467;BME280;31212;49.734;8.490;2022-09-09T15:09:13;99806.81;;;22.30;58.16
45467;BME280;31212;49.734;8.490;2022-09-09T15:11:40;99833.28;;;21.96;59.18
45467;BME280;31212;49.734;8.490;2022-09-09T15:14:09;99852.44;;;22.17;59.29
45467;BME280;31212;49.734;8.490;2022-09-09T15:16:38;99854.84;;;21.71;59.99
45467;BME280;31212;49.734;8.490;2022-09-09T15:19:05;99855.19;;;21.65;60.11